createdAt,value
2018-08-20T00:02:06.238Z,33.60
2018-08-20T00:04:42.519Z,33.60
2018-08-20T00:07:14.574Z,33.60
2018-08-20T00:09:47.295Z,33.60
2018-08-20T00:12:20.104Z,33.60
2018-08-20T00:14:51.795Z,33.60
2018-08-20T00:17:23.537Z,33.60
2018-08-20T00:19:55.038Z,33.50
2018-08-20T00:22:27.809Z,33.50
2018-08-20T00:25:10.910Z,33.50
2018-08-20T00:27:42.642Z,33.50
2018-08-20T00:30:17.877Z,33.50
2018-08-20T00:32:50.417Z,33.50
2018-08-20T00:35:21.946Z,33.50
2018-08-20T00:37:54.099Z,33.50
2018-08-20T00:40:25.710Z,33.50
2018-08-20T00:42:57.225Z,33.50
2018-08-20T00:45:28.165Z,33.50
2018-08-20T00:47:59.666Z,33.50
2018-08-20T00:50:31.062Z,33.50
2018-08-20T00:53:02.555Z,33.40
2018-08-20T00:55:34.037Z,33.40
2018-08-20T00:58:05.861Z,33.40
2018-08-20T01:00:37.782Z,33.40
2018-08-20T01:03:09.631Z,33.50
2018-08-20T01:05:41.015Z,33.40
2018-08-20T01:08:13.073Z,33.40
2018-08-20T01:10:44.719Z,33.40
2018-08-20T01:13:16.379Z,33.40
2018-08-20T01:15:48.235Z,33.30
2018-08-20T01:18:20.215Z,33.40
2018-08-20T01:20:51.758Z,33.30
2018-08-20T01:23:24.528Z,33.30
2018-08-20T01:25:55.888Z,33.30
2018-08-20T01:28:27.590Z,33.30
2018-08-20T01:30:58.803Z,33.30
2018-08-20T01:33:30.286Z,33.30
2018-08-20T01:36:01.551Z,33.30
2018-08-20T01:38:33.598Z,33.30
2018-08-20T01:41:05.119Z,33.30
2018-08-20T01:43:36.589Z,33.30
2018-08-20T01:46:08.048Z,33.30
2018-08-20T01:48:39.966Z,33.30
2018-08-20T01:51:11.354Z,33.30
2018-08-20T01:53:42.938Z,33.30
2018-08-20T01:56:14.202Z,33.30
2018-08-20T01:58:45.964Z,33.30
2018-08-20T02:01:17.502Z,33.30
2018-08-20T02:03:49.709Z,33.30
2018-08-20T02:06:22.805Z,33.30
2018-08-20T02:08:54.202Z,33.30
2018-08-20T02:11:25.446Z,33.30
2018-08-20T02:13:57.321Z,33.30
2018-08-20T02:16:28.834Z,33.40
2018-08-20T02:19:00.502Z,33.40
2018-08-20T02:21:32.540Z,33.30
2018-08-20T02:24:05.771Z,33.40
2018-08-20T02:26:37.306Z,33.50
2018-08-20T02:29:09.456Z,33.50
2018-08-20T02:31:41.021Z,33.50
2018-08-20T02:34:12.796Z,33.50
2018-08-20T02:36:44.374Z,33.50
2018-08-20T02:39:15.730Z,33.50
2018-08-20T02:41:47.134Z,33.50
2018-08-20T02:44:19.058Z,33.50
2018-08-20T02:46:54.537Z,33.50
2018-08-20T02:49:26.243Z,33.50
2018-08-20T02:51:57.462Z,33.50
2018-08-20T02:54:30.671Z,33.30
2018-08-20T02:57:02.221Z,33.30
2018-08-20T02:59:33.691Z,33.30
2018-08-20T03:02:05.248Z,33.30
2018-08-20T03:04:36.654Z,33.30
2018-08-20T03:07:08.321Z,33.30
2018-08-20T03:09:40.142Z,33.40
2018-08-20T03:12:11.673Z,33.40
2018-08-20T03:14:42.879Z,33.50
2018-08-20T03:17:14.650Z,33.60
2018-08-20T03:19:46.124Z,33.60
2018-08-20T03:22:17.043Z,33.60
2018-08-20T03:24:49.599Z,33.60
2018-08-20T03:27:20.993Z,33.60
2018-08-20T03:29:52.453Z,33.80
2018-08-20T03:32:23.762Z,33.80
2018-08-20T03:34:55.633Z,34.00
2018-08-20T03:37:26.841Z,34.00
2018-08-20T03:39:58.419Z,34.20
2018-08-20T03:42:29.957Z,34.30
2018-08-20T03:45:01.658Z,34.60
2018-08-20T03:47:32.990Z,34.70
2018-08-20T03:50:05.162Z,35.00
2018-08-20T03:52:36.434Z,35.00
2018-08-20T03:55:08.169Z,35.20
2018-08-20T03:57:39.680Z,35.50
2018-08-20T04:00:12.813Z,35.80
2018-08-20T04:02:44.358Z,36.00
2018-08-20T04:05:16.266Z,36.20
2018-08-20T04:07:47.587Z,36.20
2018-08-20T04:10:19.316Z,36.40
2018-08-20T04:12:50.699Z,36.40
2018-08-20T04:15:22.256Z,36.60
2018-08-20T04:17:53.823Z,36.80
2018-08-20T04:20:25.756Z,37.00
2018-08-20T04:22:57.375Z,37.40
2018-08-20T04:25:30.691Z,37.60
2018-08-20T04:28:02.099Z,38.20
2018-08-20T04:30:33.926Z,38.90
2018-08-20T04:33:05.290Z,40.40
2018-08-20T04:35:36.915Z,41.50
2018-08-20T04:38:08.622Z,41.80
2018-08-20T04:40:40.133Z,42.70
2018-08-20T04:43:11.575Z,43.40
2018-08-20T04:45:43.458Z,43.00
2018-08-20T04:48:14.921Z,42.50
2018-08-20T04:50:47.366Z,41.80
2018-08-20T04:53:18.778Z,41.70
2018-08-20T04:55:50.318Z,42.20
2018-08-20T04:58:21.537Z,42.80
2018-08-20T05:00:53.601Z,43.70
2018-08-20T05:03:25.147Z,44.40
2018-08-20T05:05:57.115Z,44.50
2018-08-20T05:08:28.678Z,44.10
2018-08-20T05:11:00.829Z,44.40
2018-08-20T05:13:32.190Z,43.60
2018-08-20T05:16:04.024Z,43.30
2018-08-20T05:18:35.630Z,42.80
2018-08-20T05:21:07.230Z,42.40
2018-08-20T05:23:38.719Z,42.50
2018-08-20T05:26:11.578Z,42.80
2018-08-20T05:28:43.148Z,43.40
2018-08-20T05:31:15.218Z,44.00
2018-08-20T05:33:46.893Z,44.80
2018-08-20T05:36:18.994Z,46.00
2018-08-20T05:38:50.147Z,46.40
2018-08-20T05:41:21.609Z,46.90
2018-08-20T05:43:52.843Z,46.30
2018-08-20T05:46:24.710Z,46.30
2018-08-20T05:48:57.542Z,45.80
2018-08-20T05:51:29.245Z,45.10
2018-08-20T05:54:00.654Z,45.00
2018-08-20T05:56:32.372Z,44.40
2018-08-20T05:59:03.709Z,43.70
2018-08-20T06:01:35.527Z,43.40
2018-08-20T06:04:06.978Z,43.40
2018-08-20T06:06:38.533Z,43.40
2018-08-20T06:09:11.555Z,43.40
2018-08-20T06:11:43.552Z,43.30
2018-08-20T06:14:14.918Z,44.30
2018-08-20T06:16:46.722Z,45.60
2018-08-20T06:19:18.242Z,46.20
2018-08-20T06:21:50.029Z,47.10
2018-08-20T06:24:21.886Z,47.70
2018-08-20T06:26:54.551Z,47.50
2018-08-20T06:29:25.967Z,48.00
2018-08-20T06:31:57.623Z,48.70
2018-08-20T06:34:28.932Z,48.30
2018-08-20T06:37:00.687Z,47.00
2018-08-20T06:39:32.191Z,46.60
2018-08-20T06:42:03.865Z,45.40
2018-08-20T06:44:35.127Z,45.80
2018-08-20T06:47:07.120Z,45.50
2018-08-20T06:49:38.446Z,44.50
2018-08-20T06:52:10.089Z,44.60
2018-08-20T06:54:41.623Z,44.60
2018-08-20T06:57:13.559Z,44.40
2018-08-20T06:59:44.856Z,44.30
2018-08-20T07:02:16.459Z,44.30
2018-08-20T07:04:47.698Z,43.50
2018-08-20T07:07:19.286Z,43.50
2018-08-20T07:09:50.861Z,43.90
2018-08-20T07:12:23.167Z,43.90
2018-08-20T07:14:54.477Z,43.50
2018-08-20T07:17:26.311Z,43.10
2018-08-20T07:19:57.914Z,43.90
2018-08-20T07:22:29.755Z,45.00
2018-08-20T07:25:01.130Z,45.80
2018-08-20T07:27:34.046Z,47.00
2018-08-20T07:30:06.541Z,47.00
2018-08-20T07:32:38.418Z,47.30
2018-08-20T07:35:09.830Z,47.30
2018-08-20T07:37:41.526Z,46.90
2018-08-20T07:40:12.966Z,46.20
2018-08-20T07:42:44.583Z,46.00
2018-08-20T07:45:16.103Z,45.80
2018-08-20T07:47:47.553Z,45.00
2018-08-20T07:50:19.042Z,44.90
2018-08-20T07:52:50.826Z,44.30
2018-08-20T07:55:22.080Z,43.80
2018-08-20T07:57:54.088Z,43.60
2018-08-20T08:00:25.464Z,43.80
2018-08-20T08:02:57.232Z,43.70
2018-08-20T08:05:28.667Z,43.60
2018-08-20T08:08:00.176Z,43.30
2018-08-20T08:10:31.837Z,43.10
2018-08-20T08:13:03.511Z,42.90
2018-08-20T08:15:34.948Z,42.90
2018-08-20T08:18:06.622Z,42.60
2018-08-20T08:20:37.733Z,42.50
2018-08-20T08:23:09.456Z,42.40
2018-08-20T08:25:40.687Z,42.30
2018-08-20T08:28:15.125Z,42.20
2018-08-20T08:30:46.196Z,42.40
2018-08-20T08:33:17.877Z,42.40
2018-08-20T08:35:48.998Z,42.30
2018-08-20T08:38:20.365Z,42.30
2018-08-20T08:40:52.881Z,42.10
2018-08-20T08:43:24.259Z,42.40
2018-08-20T08:45:55.461Z,42.30
2018-08-20T08:48:26.716Z,42.40
2018-08-20T08:50:58.036Z,42.40
2018-08-20T08:53:29.501Z,42.40
2018-08-20T08:56:00.605Z,42.20
2018-08-20T08:58:32.093Z,42.20
2018-08-20T09:01:04.210Z,42.20
2018-08-20T09:03:35.542Z,42.00
2018-08-20T09:06:06.814Z,41.90
2018-08-20T09:08:38.317Z,41.80
2018-08-20T09:11:09.289Z,41.90
2018-08-20T09:13:40.925Z,41.80
2018-08-20T09:16:12.346Z,41.60
2018-08-20T09:18:43.935Z,41.80
2018-08-20T09:21:15.477Z,41.80
2018-08-20T09:23:47.486Z,41.70
2018-08-20T09:26:19.022Z,41.70
2018-08-20T09:28:51.479Z,41.40
2018-08-20T09:31:22.774Z,41.30
2018-08-20T09:33:54.742Z,41.20
2018-08-20T09:36:26.091Z,41.20
2018-08-20T09:38:57.557Z,41.10
2018-08-20T09:41:28.845Z,41.10
2018-08-20T09:44:00.634Z,41.30
2018-08-20T09:46:32.138Z,41.20
2018-08-20T09:49:03.575Z,41.20
2018-08-20T09:51:34.946Z,41.10
2018-08-20T09:54:06.658Z,40.90
2018-08-20T09:56:38.176Z,40.90
2018-08-20T09:59:09.737Z,41.00
2018-08-20T10:01:40.802Z,40.90
2018-08-20T10:04:12.406Z,41.00
2018-08-20T10:06:43.694Z,40.90
2018-08-20T10:09:15.651Z,41.00
2018-08-20T10:11:47.098Z,41.00
2018-08-20T10:14:18.843Z,41.00
2018-08-20T10:16:50.426Z,41.00
2018-08-20T10:19:21.867Z,41.00
2018-08-20T10:21:53.221Z,40.80
2018-08-20T10:24:24.842Z,40.70
2018-08-20T10:26:56.229Z,40.80
2018-08-20T10:29:28.660Z,40.80
2018-08-20T10:31:59.987Z,40.70
2018-08-20T10:34:31.594Z,40.70
2018-08-20T10:37:03.054Z,40.80
2018-08-20T10:39:34.962Z,40.70
2018-08-20T10:42:06.571Z,40.70
2018-08-20T10:44:43.129Z,40.70
2018-08-20T10:47:14.598Z,40.60
2018-08-20T10:49:46.458Z,40.70
2018-08-20T10:52:17.967Z,40.60
2018-08-20T10:54:49.429Z,40.80
2018-08-20T10:57:20.858Z,40.50
2018-08-20T10:59:52.474Z,40.60
2018-08-20T11:02:23.825Z,40.60
2018-08-20T11:04:56.567Z,40.60
2018-08-20T11:07:27.983Z,40.60
2018-08-20T11:09:59.693Z,40.50
2018-08-20T11:12:31.131Z,40.40
2018-08-20T11:15:03.215Z,40.50
2018-08-20T11:17:34.690Z,40.40
2018-08-20T11:20:07.011Z,40.40
2018-08-20T11:22:38.618Z,40.30
2018-08-20T11:25:10.996Z,40.30
2018-08-20T11:27:42.351Z,40.40
2018-08-20T11:30:16.629Z,40.40
2018-08-20T11:32:47.840Z,40.10
2018-08-20T11:35:18.985Z,40.10
2018-08-20T11:37:50.382Z,40.00
2018-08-20T11:40:21.794Z,40.10
2018-08-20T11:42:53.513Z,40.10
2018-08-20T11:45:25.041Z,39.90
2018-08-20T11:47:56.212Z,39.80
2018-08-20T11:50:27.410Z,39.70
2018-08-20T11:52:58.310Z,39.70
2018-08-20T11:55:29.539Z,39.50
2018-08-20T11:58:00.788Z,39.70
2018-08-20T12:00:32.260Z,39.70
2018-08-20T12:03:03.642Z,39.60
2018-08-20T12:05:34.945Z,39.60
2018-08-20T12:08:06.082Z,39.60
2018-08-20T12:10:37.335Z,39.50
2018-08-20T12:13:08.655Z,39.60
2018-08-20T12:15:40.087Z,39.50
2018-08-20T12:18:11.365Z,39.50
2018-08-20T12:20:42.757Z,39.40
2018-08-20T12:23:14.106Z,39.40
2018-08-20T12:25:46.075Z,39.40
2018-08-20T12:28:17.557Z,39.30
2018-08-20T12:30:50.442Z,39.30
2018-08-20T12:33:22.049Z,39.30
2018-08-20T12:35:53.465Z,39.30
2018-08-20T12:38:24.958Z,39.30
2018-08-20T12:40:56.970Z,39.10
2018-08-20T12:43:28.267Z,39.20
2018-08-20T12:46:00.171Z,39.10
2018-08-20T12:48:31.607Z,39.10
2018-08-20T12:51:02.899Z,39.00
2018-08-20T12:53:34.361Z,38.90
2018-08-20T12:56:05.947Z,39.00
2018-08-20T12:58:37.170Z,38.90
2018-08-20T13:01:09.100Z,38.80
2018-08-20T13:03:40.432Z,38.80
2018-08-20T13:06:12.135Z,38.80
2018-08-20T13:08:44.274Z,38.80
2018-08-20T13:11:16.191Z,38.60
2018-08-20T13:13:47.716Z,38.60
2018-08-20T13:16:19.317Z,38.50
2018-08-20T13:18:50.762Z,38.40
2018-08-20T13:21:22.222Z,38.40
2018-08-20T13:23:53.547Z,38.40
2018-08-20T13:26:25.362Z,38.50
2018-08-20T13:28:56.677Z,38.40
2018-08-20T13:31:29.370Z,38.40
2018-08-20T13:34:00.723Z,38.40
2018-08-20T13:36:32.458Z,38.40
2018-08-20T13:39:04.778Z,38.30
2018-08-20T13:41:36.773Z,38.10
2018-08-20T13:44:08.519Z,38.10
2018-08-20T13:46:40.074Z,38.00
2018-08-20T13:49:11.459Z,38.00
2018-08-20T13:51:43.304Z,38.10
2018-08-20T13:54:14.682Z,37.90
2018-08-20T13:56:46.449Z,37.90
2018-08-20T13:59:18.069Z,37.80
2018-08-20T14:01:49.563Z,37.70
2018-08-20T14:04:21.081Z,37.70
2018-08-20T14:06:52.722Z,37.60
2018-08-20T14:09:24.116Z,37.50
2018-08-20T14:11:55.875Z,37.50
2018-08-20T14:14:27.486Z,37.50
2018-08-20T14:16:59.023Z,37.40
2018-08-20T14:19:30.523Z,37.30
2018-08-20T14:22:02.302Z,37.30
2018-08-20T14:24:33.647Z,37.30
2018-08-20T14:27:05.459Z,37.20
2018-08-20T14:29:37.007Z,37.20
2018-08-20T14:32:10.022Z,37.10
2018-08-20T14:34:41.364Z,37.10
2018-08-20T14:37:12.794Z,37.00
2018-08-20T14:39:44.169Z,37.00
2018-08-20T14:42:15.975Z,36.90
2018-08-20T14:44:47.452Z,36.80
2018-08-20T14:47:19.369Z,36.80
2018-08-20T14:49:50.871Z,36.80
2018-08-20T14:52:22.361Z,36.70
2018-08-20T14:54:53.923Z,36.60
2018-08-20T14:57:25.956Z,36.60
2018-08-20T14:59:57.429Z,36.60
2018-08-20T15:02:29.230Z,36.50
2018-08-20T15:05:00.731Z,36.60
2018-08-20T15:07:33.016Z,36.50
2018-08-20T15:10:04.733Z,36.50
2018-08-20T15:12:36.417Z,36.40
2018-08-20T15:15:08.856Z,36.50
2018-08-20T15:17:40.486Z,36.50
2018-08-20T15:20:11.932Z,36.50
2018-08-20T15:22:43.867Z,36.40
2018-08-20T15:25:15.164Z,36.40
2018-08-20T15:27:46.944Z,36.40
2018-08-20T15:30:18.441Z,36.30
2018-08-20T15:32:51.157Z,36.30
2018-08-20T15:35:22.858Z,36.30
2018-08-20T15:37:54.431Z,36.30
2018-08-20T15:40:25.990Z,36.20
2018-08-20T15:42:57.811Z,36.20
2018-08-20T15:45:29.214Z,36.20
2018-08-20T15:48:00.884Z,36.20
2018-08-20T15:50:32.452Z,36.10
2018-08-20T15:53:03.878Z,36.20
2018-08-20T15:55:35.309Z,36.10
2018-08-20T15:58:07.296Z,36.10
2018-08-20T16:00:38.690Z,36.10
2018-08-20T16:03:10.903Z,36.10
2018-08-20T16:05:42.459Z,36.10
2018-08-20T16:08:14.540Z,36.00
2018-08-20T16:10:45.926Z,35.90
2018-08-20T16:13:17.710Z,35.90
2018-08-20T16:15:49.350Z,35.90
2018-08-20T16:18:20.988Z,35.90
2018-08-20T16:20:52.214Z,35.90
2018-08-20T16:23:24.889Z,35.90
2018-08-20T16:25:56.977Z,35.90
2018-08-20T16:28:28.802Z,35.90
2018-08-20T16:31:00.351Z,35.90
2018-08-20T16:33:33.637Z,35.80
2018-08-20T16:36:05.138Z,35.80
2018-08-20T16:38:37.374Z,35.80
2018-08-20T16:41:08.855Z,35.80
2018-08-20T16:43:40.635Z,35.80
2018-08-20T16:46:11.866Z,35.80
2018-08-20T16:48:43.904Z,35.80
2018-08-20T16:51:15.179Z,35.70
2018-08-20T16:53:46.831Z,35.70
2018-08-20T16:56:18.262Z,35.70
2018-08-20T16:58:50.821Z,35.60
2018-08-20T17:01:22.399Z,35.60
2018-08-20T17:03:53.851Z,35.60
2018-08-20T17:06:25.566Z,35.60
2018-08-20T17:08:57.394Z,35.60
2018-08-20T17:11:28.742Z,35.60
2018-08-20T17:14:00.303Z,35.50
2018-08-20T17:16:31.821Z,35.50
2018-08-20T17:19:03.321Z,35.50
2018-08-20T17:21:35.034Z,35.40
2018-08-20T17:24:06.829Z,35.50
2018-08-20T17:26:38.047Z,35.50
2018-08-20T17:29:12.159Z,35.50
2018-08-20T17:31:43.490Z,35.40
2018-08-20T17:34:17.090Z,35.40
2018-08-20T17:36:48.664Z,35.40
2018-08-20T17:39:20.818Z,35.40
2018-08-20T17:41:52.397Z,35.40
2018-08-20T17:44:24.747Z,35.40
2018-08-20T17:46:56.402Z,35.40
2018-08-20T17:49:30.591Z,35.40
2018-08-20T17:52:02.190Z,35.40
2018-08-20T17:54:33.907Z,35.30
2018-08-20T17:57:05.122Z,35.30
2018-08-20T17:59:36.706Z,35.30
2018-08-20T18:02:12.792Z,35.20
2018-08-20T18:04:44.387Z,35.20
2018-08-20T18:07:16.006Z,35.20
2018-08-20T18:09:47.741Z,35.20
2018-08-20T18:12:19.142Z,35.20
2018-08-20T18:14:55.211Z,35.20
2018-08-20T18:17:26.528Z,35.10
2018-08-20T18:19:58.810Z,35.10
2018-08-20T18:22:30.167Z,35.00
2018-08-20T18:25:01.862Z,35.00
2018-08-20T18:27:37.654Z,34.90
2018-08-20T18:30:09.990Z,35.00
2018-08-20T18:32:41.657Z,35.00
2018-08-20T18:35:21.606Z,34.90
2018-08-20T18:37:53.503Z,34.90
2018-08-20T18:40:24.969Z,34.90
2018-08-20T18:42:57.712Z,34.90
2018-08-20T18:45:29.317Z,34.90
2018-08-20T18:48:00.757Z,34.90
2018-08-20T18:50:32.442Z,34.90
2018-08-20T18:53:03.879Z,34.80
2018-08-20T18:55:35.565Z,34.80
2018-08-20T18:58:07.467Z,34.80
2018-08-20T19:00:39.006Z,34.70
2018-08-20T19:03:11.091Z,34.60
2018-08-20T19:05:51.427Z,34.70
2018-08-20T19:08:26.154Z,34.60
2018-08-20T19:10:57.680Z,34.60
2018-08-20T19:13:29.210Z,34.60
2018-08-20T19:16:00.618Z,34.60
2018-08-20T19:18:35.030Z,34.60
2018-08-20T19:21:13.330Z,34.60
2018-08-20T19:23:45.053Z,34.60
2018-08-20T19:26:16.541Z,34.60
2018-08-20T19:28:47.874Z,34.60
2018-08-20T19:31:19.516Z,34.50
2018-08-20T19:33:51.004Z,34.50
2018-08-20T19:36:23.622Z,34.50
2018-08-20T19:38:55.096Z,34.50
2018-08-20T19:41:28.226Z,34.50
2018-08-20T19:43:59.786Z,34.50
2018-08-20T19:46:36.046Z,34.40
2018-08-20T19:49:09.584Z,34.40
2018-08-20T19:51:42.851Z,34.50
2018-08-20T19:54:15.752Z,34.40
2018-08-20T19:56:47.397Z,34.40
2018-08-20T19:59:27.630Z,34.40
2018-08-20T20:01:59.356Z,34.40
2018-08-20T20:04:30.902Z,34.40
2018-08-20T20:07:02.586Z,34.30
2018-08-20T20:09:37.406Z,34.30
2018-08-20T20:12:09.322Z,34.40
2018-08-20T20:14:48.022Z,34.30
2018-08-20T20:17:19.470Z,34.30
2018-08-20T20:19:51.095Z,34.30
2018-08-20T20:22:22.955Z,34.30
2018-08-20T20:24:54.267Z,34.30
2018-08-20T20:27:25.969Z,34.30
2018-08-20T20:29:59.053Z,34.30
2018-08-20T20:32:30.799Z,34.30
2018-08-20T20:35:02.482Z,34.20
2018-08-20T20:37:35.897Z,34.20
2018-08-20T20:40:07.370Z,34.20
2018-08-20T20:42:39.135Z,34.20
2018-08-20T20:45:10.777Z,34.20
2018-08-20T20:47:42.543Z,34.10
2018-08-20T20:50:14.154Z,34.10
2018-08-20T20:52:45.811Z,34.10
2018-08-20T20:55:19.514Z,34.10
2018-08-20T20:57:51.423Z,34.10
2018-08-20T21:00:22.857Z,34.10
2018-08-20T21:02:59.795Z,34.10
2018-08-20T21:05:31.159Z,34.10
2018-08-20T21:08:02.800Z,34.10
2018-08-20T21:10:49.306Z,34.10
2018-08-20T21:13:22.063Z,34.10
2018-08-20T21:15:58.148Z,34.00
2018-08-20T21:18:31.014Z,34.00
2018-08-20T21:21:02.334Z,34.00
2018-08-20T21:23:34.195Z,34.00
2018-08-20T21:26:05.667Z,34.00
2018-08-20T21:28:41.960Z,34.00
2018-08-20T21:31:14.188Z,34.00
2018-08-20T21:33:46.151Z,34.00
2018-08-20T21:36:17.626Z,33.90
2018-08-20T21:38:50.351Z,33.80
2018-08-20T21:41:28.917Z,33.90
2018-08-20T21:44:00.337Z,33.90
2018-08-20T21:46:31.894Z,33.90
2018-08-20T21:49:03.695Z,33.90
2018-08-20T21:51:40.299Z,33.80
2018-08-20T21:54:11.733Z,33.80
2018-08-20T21:56:52.721Z,33.80
2018-08-20T21:59:24.595Z,33.80
2018-08-20T22:01:55.998Z,33.80
2018-08-20T22:04:28.095Z,33.80
2018-08-20T22:06:59.745Z,33.80
2018-08-20T22:09:31.520Z,33.80
2018-08-20T22:12:02.835Z,33.80
2018-08-20T22:14:34.623Z,33.80
2018-08-20T22:17:06.527Z,33.80
2018-08-20T22:19:38.265Z,33.70
2018-08-20T22:22:09.767Z,33.70
2018-08-20T22:24:42.861Z,33.70
2018-08-20T22:27:14.082Z,33.70
2018-08-20T22:29:50.580Z,33.70
2018-08-20T22:32:22.225Z,33.60
2018-08-20T22:34:53.731Z,33.60
2018-08-20T22:37:25.087Z,33.60
2018-08-20T22:40:01.986Z,33.70
2018-08-20T22:42:43.960Z,33.70
2018-08-20T22:45:17.698Z,33.60
2018-08-20T22:47:49.819Z,33.50
2018-08-20T22:50:21.517Z,33.60
2018-08-20T22:52:54.056Z,33.60
2018-08-20T22:55:25.530Z,33.60
2018-08-20T22:58:09.164Z,33.60
2018-08-20T23:00:40.675Z,33.60
2018-08-20T23:03:12.173Z,33.60
2018-08-20T23:05:43.723Z,33.60
2018-08-20T23:08:18.610Z,33.60
2018-08-20T23:10:50.277Z,33.60
2018-08-20T23:13:22.273Z,33.60
2018-08-20T23:15:53.977Z,33.50
2018-08-20T23:18:25.449Z,33.50
2018-08-20T23:20:57.438Z,33.60
2018-08-20T23:23:33.806Z,33.50
2018-08-20T23:26:09.932Z,33.50
2018-08-20T23:28:42.366Z,33.50
2018-08-20T23:31:15.041Z,33.50
2018-08-20T23:33:46.409Z,33.50
2018-08-20T23:36:18.239Z,33.50
2018-08-20T23:38:49.717Z,33.40
2018-08-20T23:41:22.357Z,33.40
2018-08-20T23:44:01.417Z,33.40
2018-08-20T23:46:43.200Z,33.40
2018-08-20T23:49:14.571Z,33.40
2018-08-20T23:51:46.422Z,33.40
2018-08-20T23:54:18.015Z,33.40
2018-08-20T23:56:49.825Z,33.40
2018-08-20T23:59:21.151Z,33.40
